SPPAC EPLU-EPLU

Flight info

Callsign SPPAC
Flight time 0h 12m
Altitude 12000
Route EPLU EP TRA 30
Aircraft P750/L-SDGRY/S

Departure

Time 2026-04-20 19:51
Airport Lubin Airfield (EPLU)

Arrival

Time 2026-04-20 20:03
Airport Lubin Airfield (EPLU)
Time Latitude Longitude Altitude Speed Heading
2026-04-20 19:47 51.42624 16.19406 516 ft 0 kts 184°
2026-04-20 19:48 51.42622 16.19406 516 ft 2 kts 184°
2026-04-20 19:48 51.42540 16.19410 516 ft 16 kts 186°
2026-04-20 19:49 51.42500 16.19368 516 ft 0 kts 220°
2026-04-20 19:49 51.42483 16.19347 516 ft 13 kts 212°
2026-04-20 19:49 51.42403 16.19424 516 ft 24 kts 130°
2026-04-20 19:49 51.42275 16.19667 518 ft 30 kts 130°
2026-04-20 19:50 51.42134 16.19939 517 ft 32 kts 129°
2026-04-20 19:50 51.42037 16.20137 516 ft 9 kts 135°
2026-04-20 19:50 51.42049 16.20082 516 ft 12 kts 311°
2026-04-20 19:50 51.42279 16.19653 518 ft 94 kts 311°
2026-04-20 19:51 51.42742 16.18765 861 ft 106 kts 309°
2026-04-20 19:51 51.43236 16.17831 1327 ft 109 kts 310°
2026-04-20 19:51 51.43700 16.16929 1773 ft 106 kts 308°
2026-04-20 19:51 51.44178 16.16021 2159 ft 106 kts 310°
2026-04-20 19:52 51.44664 16.15152 2583 ft 103 kts 312°
2026-04-20 19:52 51.45122 16.14284 2991 ft 101 kts 299°
2026-04-20 19:52 51.45197 16.13227 3398 ft 98 kts 251°
2026-04-20 19:52 51.44711 16.12452 3753 ft 102 kts 211°
2026-04-20 19:53 51.44105 16.11924 4200 ft 97 kts 211°
2026-04-20 19:53 51.43495 16.11462 4588 ft 97 kts 196°
2026-04-20 19:53 51.42836 16.11529 4963 ft 98 kts 157°
2026-04-20 19:53 51.42253 16.12108 5314 ft 100 kts 147°
2026-04-20 19:54 51.41684 16.12752 5672 ft 101 kts 144°
2026-04-20 19:54 51.41160 16.13477 6026 ft 101 kts 138°
2026-04-20 19:54 51.40590 16.14140 6357 ft 103 kts 150°
2026-04-20 19:54 51.40002 16.14763 6726 ft 100 kts 146°
2026-04-20 19:55 51.39439 16.15406 7076 ft 99 kts 145°
2026-04-20 19:55 51.38903 16.16114 7394 ft 102 kts 135°
2026-04-20 19:55 51.38523 16.17079 7710 ft 103 kts 114°
2026-04-20 19:55 51.38285 16.18157 8038 ft 103 kts 104°
2026-04-20 19:56 51.38209 16.18919 8250 ft 103 kts 92°
2026-04-20 19:56 51.38338 16.20374 8674 ft 101 kts 78°
2026-04-20 19:56 51.38475 16.21467 8992 ft 99 kts 77°
2026-04-20 19:56 51.38651 16.22538 9275 ft 102 kts 70°
2026-04-20 19:57 51.38988 16.23547 9543 ft 102 kts 47°
2026-04-20 19:57 51.39555 16.24122 9876 ft 94 kts
2026-04-20 19:57 51.40181 16.23892 10120 ft 93 kts 323°
2026-04-20 19:57 51.40627 16.23170 10397 ft 92 kts 308°
2026-04-20 19:58 51.41066 16.22308 10466 ft 103 kts 307°
2026-04-20 19:58 51.41510 16.21371 10470 ft 109 kts 305°
2026-04-20 19:58 51.41952 16.20383 10485 ft 112 kts 303°
2026-04-20 19:58 51.42370 16.19318 10503 ft 114 kts 301°
2026-04-20 19:59 51.42805 16.18211 10452 ft 121 kts 301°
2026-04-20 19:59 51.43210 16.17061 10347 ft 117 kts 298°
2026-04-20 19:59 51.43633 16.15833 9036 ft 127 kts 300°
2026-04-20 19:59 51.44146 16.14471 7635 ft 160 kts 301°
2026-04-20 20:00 51.44581 16.13428 6850 ft 169 kts 313°
2026-04-20 20:00 51.45604 16.13137 5932 ft 162 kts 33°
2026-04-20 20:00 51.46106 16.14711 4916 ft 165 kts 86°
2026-04-20 20:00 51.45800 16.16448 3894 ft 166 kts 121°
2026-04-20 20:01 51.45152 16.17965 2845 ft 166 kts 126°
2026-04-20 20:01 51.44484 16.19474 1857 ft 165 kts 126°
2026-04-20 20:01 51.43826 16.20896 1203 ft 148 kts 128°
2026-04-20 20:01 51.43257 16.22002 1013 ft 100 kts 135°
2026-04-20 20:02 51.42732 16.22434 668 ft 102 kts 169°
2026-04-20 20:02 51.42036 16.22254 930 ft 101 kts 213°
2026-04-20 20:02 51.41611 16.21449 921 ft 93 kts 257°
2026-04-20 20:02 51.41825 16.20509 625 ft 95 kts 311°
2026-04-20 20:03 51.42206 16.19798 518 ft 61 kts 310°
2026-04-20 20:03 51.42366 16.19499 516 ft 33 kts 310°
2026-04-20 20:03 51.42469 16.19330 516 ft 8 kts 18°
2026-04-20 20:03 51.42541 16.19416 516 ft 9 kts
2026-04-20 20:04 51.42618 16.19438 516 ft 9 kts 35°
2026-04-20 20:04 51.42626 16.19412 516 ft 0 kts 187°
2026-04-20 20:06 51.42548 16.19403 516 ft 15 kts 181°
2026-04-20 20:06 51.42451 16.19330 516 ft 15 kts 174°
2026-04-20 20:07 51.42356 16.19505 516 ft 31 kts 128°
2026-04-20 20:07 51.42214 16.19775 518 ft 31 kts 130°
2026-04-20 20:07 51.42080 16.20036 516 ft 30 kts 129°
2026-04-20 20:07 51.42019 16.20130 516 ft 10 kts 248°
2026-04-20 20:08 51.42062 16.20057 516 ft 11 kts 307°
2026-04-20 20:08 51.42275 16.19659 518 ft 93 kts 311°
2026-04-20 20:08 51.42747 16.18780 864 ft 105 kts 309°
2026-04-20 20:08 51.43225 16.17865 1302 ft 110 kts 310°
2026-04-20 20:09 51.43727 16.16952 1816 ft 107 kts 311°
2026-04-20 20:09 51.44213 16.16076 2224 ft 105 kts 310°
2026-04-20 20:09 51.44687 16.15199 2595 ft 104 kts 311°
2026-04-20 20:09 51.45175 16.14340 2940 ft 105 kts 311°
2026-04-20 20:10 51.45496 16.13344 3324 ft 100 kts 275°
2026-04-20 20:10 51.45339 16.12294 3702 ft 96 kts 243°
2026-04-20 20:10 51.44988 16.11387 4067 ft 96 kts 237°
2026-04-20 20:10 51.44524 16.10582 4357 ft 102 kts 216°
2026-04-20 20:11 51.43880 16.10134 4705 ft 101 kts 193°
2026-04-20 20:11 51.43185 16.10109 5060 ft 100 kts 175°
2026-04-20 20:11 51.42495 16.10291 5366 ft 102 kts 169°
2026-04-20 20:11 51.41814 16.10566 5699 ft 101 kts 165°
2026-04-20 20:12 51.41145 16.10911 6021 ft 100 kts 160°
2026-04-20 20:12 51.40542 16.11461 6354 ft 99 kts 143°
2026-04-20 20:12 51.40015 16.12154 6697 ft 98 kts 142°
2026-04-20 20:13 51.38972 16.13575 7345 ft 97 kts 140°
2026-04-20 20:13 51.38444 16.14277 7644 ft 99 kts 142°
2026-04-20 20:13 51.37917 16.15006 7943 ft 100 kts 138°
2026-04-20 20:13 51.37424 16.15806 8225 ft 103 kts 131°
2026-04-20 20:14 51.37065 16.16796 8503 ft 105 kts 107°
2026-04-20 20:14 51.36931 16.17956 8796 ft 106 kts 97°
2026-04-20 20:14 51.36861 16.19124 9138 ft 105 kts 95°
2026-04-20 20:14 51.36853 16.20286 9462 ft 103 kts 83°
2026-04-20 20:15 51.37076 16.21370 9757 ft 103 kts 57°
2026-04-20 20:15 51.37550 16.22201 10040 ft 103 kts 37°
2026-04-20 20:15 51.37656 16.22332 10098 ft 102 kts 35°
2026-04-20 20:16 51.38232 16.22863 10353 ft 102 kts 23°
2026-04-20 20:16 51.38873 16.23348 10643 ft 102 kts 26°
2026-04-20 20:16 51.39497 16.23877 10936 ft 100 kts 24°
2026-04-20 20:17 51.40152 16.23898 11176 ft 99 kts 331°
2026-04-20 20:17 51.40686 16.23113 11304 ft 113 kts 307°
2026-04-20 20:17 51.41217 16.22041 11339 ft 132 kts 308°
2026-04-20 20:17 51.41771 16.20889 11455 ft 137 kts 307°
2026-04-20 20:19 51.41981 16.20444 11558 ft 134 kts 305°
2026-04-20 20:19 51.42574 16.19238 11651 ft 139 kts 309°
2026-04-20 20:19 51.43225 16.18052 11709 ft 146 kts 308°
2026-04-20 20:19 51.43909 16.16696 10812 ft 166 kts 307°
2026-04-20 20:20 51.44723 16.15141 9479 ft 182 kts 309°
2026-04-20 20:20 51.45655 16.13900 8435 ft 175 kts 339°
2026-04-20 20:20 51.46841 16.14069 7167 ft 180 kts 30°
2026-04-20 20:20 51.47390 16.15565 5815 ft 140 kts 89°
2026-04-20 20:21 51.47021 16.17165 4568 ft 166 kts 125°
2026-04-20 20:21 51.46390 16.18428 3509 ft 130 kts 128°
2026-04-20 20:21 51.45765 16.19628 2679 ft 143 kts 130°
2026-04-20 20:21 51.45092 16.20821 1832 ft 146 kts 132°
2026-04-20 20:22 51.44389 16.21882 1324 ft 131 kts 145°
2026-04-20 20:22 51.43630 16.22545 1086 ft 120 kts 161°
2026-04-20 20:22 51.42860 16.22763 1061 ft 105 kts 182°
2026-04-20 20:22 51.42177 16.22460 969 ft 102 kts 212°
2026-04-20 20:23 51.41689 16.21660 898 ft 102 kts 243°
2026-04-20 20:23 51.41751 16.20635 675 ft 90 kts 311°
2026-04-20 20:23 51.42135 16.19934 517 ft 72 kts 310°
2026-04-20 20:23 51.42316 16.19590 518 ft 12 kts 310°
2026-04-20 20:24 51.42426 16.19384 516 ft 17 kts 309°
2026-04-20 20:24 51.42501 16.19368 516 ft 18 kts 41°
2026-04-20 20:24 51.42592 16.19408 516 ft 16 kts
2026-04-20 20:24 51.42641 16.19419 516 ft 8 kts 252°
2026-04-20 20:25 51.42628 16.19409 516 ft 0 kts 170°
2026-04-20 20:26 51.42604 16.19409 516 ft 19 kts 180°
2026-04-20 20:26 51.42499 16.19365 516 ft 15 kts 224°
2026-04-20 20:26 51.42414 16.19395 516 ft 21 kts 130°
2026-04-20 20:26 51.42298 16.19618 518 ft 29 kts 129°
2026-04-20 20:27 51.42167 16.19871 518 ft 30 kts 129°
2026-04-20 20:27 51.42051 16.20118 516 ft 18 kts 122°
2026-04-20 20:27 51.42043 16.20097 516 ft 12 kts 316°
2026-04-20 20:27 51.42053 16.20079 516 ft 9 kts 309°
2026-04-20 20:28 51.42341 16.19537 518 ft 107 kts 311°
2026-04-20 20:28 51.42842 16.18585 918 ft 104 kts 310°
2026-04-20 20:28 51.43307 16.17691 1441 ft 105 kts 308°
2026-04-20 20:28 51.43770 16.16777 1946 ft 106 kts 307°
2026-04-20 20:29 51.44218 16.15869 2488 ft 103 kts 308°
2026-04-20 20:29 51.44675 16.14976 2954 ft 104 kts 308°
2026-04-20 20:29 51.45141 16.14058 3346 ft 110 kts 308°
2026-04-20 20:29 51.45609 16.13114 3776 ft 104 kts 299°
2026-04-20 20:30 51.45755 16.12045 4216 ft 100 kts 265°
2026-04-20 20:30 51.45523 16.11013 4614 ft 101 kts 236°
2026-04-20 20:30 51.45004 16.10265 5010 ft 101 kts 207°
2026-04-20 20:30 51.44304 16.10111 5368 ft 106 kts 171°
2026-04-20 20:31 51.43614 16.10539 5743 ft 105 kts 151°
2026-04-20 20:31 51.43005 16.11186 6125 ft 106 kts 146°
2026-04-20 20:31 51.42416 16.11858 6535 ft 101 kts 147°
2026-04-20 20:31 51.41841 16.12512 6919 ft 100 kts 146°
2026-04-20 20:32 51.41382 16.13353 7235 ft 105 kts 109°
2026-04-20 20:32 51.41420 16.14516 7537 ft 108 kts 70°
2026-04-20 20:32 51.41713 16.15614 7898 ft 106 kts 66°
2026-04-20 20:32 51.41852 16.16115 8075 ft 104 kts 64°
2026-04-20 20:33 51.42160 16.17157 8381 ft 108 kts 63°
2026-04-20 20:33 51.42491 16.18219 8747 ft 102 kts 61°
2026-04-20 20:33 51.42803 16.19221 9103 ft 99 kts 63°
2026-04-20 20:33 51.43087 16.20223 9429 ft 101 kts 66°
2026-04-20 20:34 51.43331 16.21273 9768 ft 100 kts 70°
2026-04-20 20:34 51.43543 16.22339 10085 ft 100 kts 71°
2026-04-20 20:34 51.43684 16.23468 10357 ft 105 kts 88°
2026-04-20 20:34 51.43517 16.24602 10646 ft 107 kts 118°
2026-04-20 20:35 51.43131 16.25325 10885 ft 107 kts 138°
2026-04-20 20:35 51.43061 16.25426 10923 ft 107 kts 138°
2026-04-20 20:35 51.42516 16.26234 11237 ft 106 kts 138°
2026-04-20 20:35 51.41903 16.26846 11507 ft 106 kts 171°
2026-04-20 20:36 51.41228 16.26451 11718 ft 109 kts 227°
2026-04-20 20:36 51.40722 16.25536 11953 ft 115 kts 233°
2026-04-20 20:36 51.40378 16.24301 11986 ft 131 kts 263°
2026-04-20 20:36 51.40536 16.22884 12112 ft 134 kts 302°
2026-04-20 20:37 51.41034 16.22011 12145 ft 141 kts 313°
2026-04-20 20:38 51.41573 16.21104 12225 ft 142 kts 311°
2026-04-20 20:38 51.42241 16.19957 12368 ft 141 kts 312°
2026-04-20 20:38 51.42938 16.18849 12480 ft 142 kts 314°
2026-04-20 20:38 51.43628 16.17720 12598 ft 142 kts 314°
2026-04-20 20:39 51.44326 16.16603 12720 ft 142 kts 313°
2026-04-20 20:39 51.44991 16.15677 12402 ft 109 kts 332°
2026-04-20 20:39 51.45829 16.15583 10956 ft 127 kts 15°
2026-04-20 20:39 51.46580 16.16402 9307 ft 152 kts 51°
2026-04-20 20:40 51.46946 16.17934 7988 ft 131 kts 85°
2026-04-20 20:40 51.46737 16.19503 6398 ft 140 kts 117°
2026-04-20 20:40 51.46102 16.20659 4845 ft 160 kts 142°
2026-04-20 20:40 51.45218 16.21648 3555 ft 121 kts 148°
2026-04-20 20:41 51.44472 16.22336 2394 ft 127 kts 153°
2026-04-20 20:41 51.43583 16.22997 1411 ft 141 kts 158°
2026-04-20 20:41 51.42783 16.23179 901 ft 109 kts 199°
2026-04-20 20:41 51.42230 16.22493 796 ft 98 kts 229°
2026-04-20 20:42 51.41798 16.21652 723 ft 98 kts 232°
2026-04-20 20:42 51.41705 16.20741 617 ft 87 kts 302°
2026-04-20 20:42 51.42099 16.20006 518 ft 79 kts 310°
2026-04-20 20:42 51.42309 16.19610 518 ft 17 kts 311°
2026-04-20 20:43 51.42434 16.19376 516 ft 21 kts 310°
2026-04-20 20:43 51.42515 16.19390 516 ft 15 kts 41°
2026-04-20 20:43 51.42585 16.19407 516 ft 11 kts 357°
2026-04-20 20:43 51.42631 16.19443 516 ft 9 kts 352°
2026-04-20 20:44 51.42627 16.19412 516 ft 0 kts 179°